LROP Airport Information

Runway Information
Runway 08L Length 11484 ft width 148 ft
Elevation 313 ft Threshold 0 ft Heading 84
Runway 26R Length 11484 ft Width 148 ft
Elevation 303 ft Threshold 0 ft Heading 264
Runway 08R Length 11484 ft width 148 ft
Elevation 314 ft Threshold 0 ft Heading 84
Runway 26L Length 11484 ft Width 148 ft
Elevation 303 ft Threshold 0 ft Heading 264
Airport Frequencies
Type APP Name BUCURESTI Frequency 118.25 MHZ
Type ATIS Name OTOPENI AT Frequency 118.5 MHZ
Type GND Name OTOPENI GN Frequency 121.7 MHZ
Type TWR Name OTOPENI TW Frequency 120.9 MHZ
Airport Navaids
Type VOR-DME Name Floresti Frequency 112200 KHZ
Type NDB Name Otopeni Frequency 349 KHZ
Type NDB Name Otopeni Frequency 268 KHZ
Type NDB Name Otopeni Frequency 370 KHZ
Type VOR-DME Name Strejnic Frequency 113200 KHZ
Airport Weather Information & NOTAM
ADDS - METARS form results

(1125 UTC 06 July 2020)
Data provider http://aviationweather.gov/metar/data/
 
METAR text: LROP 061100Z 01008KT 340V040 CAVOK 32/18 Q1008 NOSIG
Conditions at: LROP (BUCHAREST/OTOPEN, RO) observed 1100 UTC 06 July 2020
Temperature: 32.0°C (90°F)
Dewpoint: 18.0°C (64°F) [RH = 43%]
Pressure (altimeter): 29.76 inches Hg (1008.0 mb)
Winds: from the N (10 degrees) at 9 MPH (8 knots; 4.1 m/s)
Visibility: 6 or more miles (10+ km)
Ceiling: ceiling and visibility are OK
Clouds: unknown
Weather: no significant weather observed at this time

METAR text: LROP 061030Z 04007KT 350V070 CAVOK 32/17 Q1008 NOSIG
Conditions at: LROP (BUCHAREST/OTOPEN, RO) observed 1030 UTC 06 July 2020
Temperature: 32.0°C (90°F)
Dewpoint: 17.0°C (63°F) [RH = 41%]
Pressure (altimeter): 29.76 inches Hg (1008.0 mb)
Winds: from the NE (40 degrees) at 8 MPH (7 knots; 3.6 m/s)
Visibility: 6 or more miles (10+ km)
Ceiling: ceiling and visibility are OK
Clouds: unknown
Weather: no significant weather observed at this time

Forecast for: LROP (BUCHAREST/OTOPEN, RO)
Text: TAF LROP 060500Z 0606/0706 03009KT CAVOK
Forecast period: 0600 UTC 06 July 2020 to 0600 UTC 07 July 2020
Forecast type: FROM: standard forecast or significant change
Winds: from the NNE (30 degrees) at 10 MPH (9 knots; 4.6 m/s)
Visibility: 6 or more miles 10+ km)
Ceiling: unknown
Clouds: missing
Weather: NSW  (no significant weather)
Text: TEMPO 0611/0615 SCT045CB
Forecast period: 1100 to 1500 UTC 06 July 2020
Forecast type: TEMPORARY: The following changes expected for less than half the time period
Visibility: missing
Ceiling: at least 12,000 feet AGL
Clouds: scattered clouds at 4500 feet AGL
Weather: no significant weather forecast for this period
Text: TEMPO 0615/0618 33012KT
Forecast period: 1500 to 1800 UTC 06 July 2020
Forecast type: TEMPORARY: The following changes expected for less than half the time period
Winds: from the NNW (330 degrees) at 14 MPH (12 knots; 6.2 m/s)
Visibility: missing
Ceiling: unknown
Clouds: missing
Weather: no significant weather forecast for this period